Time;durP1;ratioP1;P1;durP2;ratioP2;P2;SDS_P1;SDS_P2;PMS_P1;PMS_P2;Temp;Humidity;BMP_temperature;BMP_pressure;BME280_temperature;BME280_humidity;BME280_pressure;Samples;Min_cycle;Max_cycle;Signal;HPM_P1;HPM_P2
2023/06/01 00:00:26;;;;;;;2.60;1.10;;;;;;;18.91;45.36;100604.38;10283230;28;20043;-62
2023/06/01 00:05:27;;;;;;;3.65;1.08;;;;;;;18.77;45.84;100603.66;10282572;28;20073;-63
2023/06/01 00:10:28;;;;;;;4.30;1.05;;;;;;;18.66;46.21;100604.41;10285804;28;20043;-61
2023/06/01 00:15:30;;;;;;;1.77;0.90;;;;;;;18.55;46.40;100607.84;10290161;28;20053;-60
2023/06/01 00:20:32;;;;;;;2.78;0.70;;;;;;;18.44;46.76;100612.09;10278616;28;20917;-61
2023/06/01 00:25:33;;;;;;;3.00;0.70;;;;;;;18.29;47.10;100608.88;10281402;28;20474;-61
2023/06/01 00:30:34;;;;;;;3.95;0.70;;;;;;;18.19;47.37;100603.94;10282869;28;20047;-62
2023/06/01 00:35:36;;;;;;;3.22;0.80;;;;;;;18.06;47.91;100609.47;10284590;28;20047;-61
2023/06/01 00:40:38;;;;;;;1.83;0.82;;;;;;;17.94;48.04;100609.31;10281837;28;20143;-61
2023/06/01 00:45:39;;;;;;;7.85;0.90;;;;;;;17.81;48.49;100605.59;10282337;28;20057;-64
2023/06/01 00:50:42;;;;;;;2.30;0.80;;;;;;;17.77;48.83;100600.78;10284426;28;20043;-61
2023/06/01 00:55:44;;;;;;;2.92;0.95;;;;;;;17.75;48.63;100598.31;10280991;28;20647;-63
2023/06/01 01:00:48;;;;;;;3.10;0.90;;;;;;;17.71;49.05;100594.31;10282596;28;20051;-61
2023/06/01 01:05:50;;;;;;;2.28;1.38;;;;;;;17.64;49.40;100605.25;10284445;28;20042;-61
2023/06/01 01:11:11;;;;;;;4.15;1.20;;;;;;;17.54;49.94;100601.34;10282245;28;20045;-61
2023/06/01 01:16:27;;;;;;;3.60;1.40;;;;;;;17.47;50.29;100593.19;10277163;28;20442;-60
2023/06/01 01:21:38;;;;;;;4.25;1.48;;;;;;;17.42;50.38;100595.75;10291754;28;20042;-61
2023/06/01 01:27:15;;;;;;;5.53;2.17;;;;;;;17.42;50.46;100602.00;10291978;28;20409;-60
2023/06/01 01:32:16;;;;;;;3.97;1.10;;;;;;;17.42;50.31;100590.31;10246145;28;20145;-63
2023/06/01 01:37:21;;;;;;;2.85;1.00;;;;;;;17.32;50.52;100588.03;10292591;28;20516;-63
2023/06/01 01:42:23;;;;;;;3.67;1.10;;;;;;;17.25;51.06;100595.38;10293785;28;20126;-64
2023/06/01 01:47:33;;;;;;;4.68;1.75;;;;;;;17.21;51.20;100589.53;10296485;28;20039;-62
2023/06/01 01:52:39;;;;;;;3.22;1.00;;;;;;;17.17;50.99;100587.47;10289893;28;20084;-63
2023/06/01 01:57:41;;;;;;;2.85;0.80;;;;;;;17.12;51.11;100577.25;10299655;28;20401;-62
2023/06/01 02:02:44;;;;;;;4.00;1.02;;;;;;;17.12;51.09;100571.81;10289066;28;20042;-63
2023/06/01 02:07:46;;;;;;;6.03;1.17;;;;;;;17.07;51.04;100568.06;10296355;28;20046;-62
2023/06/01 02:12:48;;;;;;;5.93;0.95;;;;;;;17.01;51.33;100567.84;10299340;28;20084;-63
2023/06/01 02:17:51;;;;;;;6.82;0.90;;;;;;;16.99;51.30;100572.66;10289984;28;20050;-64
2023/06/01 02:22:52;;;;;;;2.38;1.00;;;;;;;16.94;51.64;100563.47;10289848;28;20046;-63
2023/06/01 02:27:54;;;;;;;3.40;1.63;;;;;;;16.93;51.46;100569.97;10285811;28;20498;-63
2023/06/01 02:32:55;;;;;;;5.10;1.05;;;;;;;16.89;51.58;100568.75;10297342;28;20043;-63
2023/06/01 02:37:57;;;;;;;3.03;0.98;;;;;;;16.81;52.06;100567.91;10295703;28;20070;-63
2023/06/01 02:42:58;;;;;;;2.55;0.80;;;;;;;16.75;52.21;100566.00;10290350;28;20046;-63
2023/06/01 02:48:00;;;;;;;3.38;0.90;;;;;;;16.72;51.99;100563.69;10293778;28;20054;-62
2023/06/01 02:53:01;;;;;;;6.10;1.02;;;;;;;16.73;51.94;100559.97;10288236;28;20054;-63
2023/06/01 02:58:03;;;;;;;2.42;0.60;;;;;;;16.76;51.71;100564.13;10287232;28;20060;-62
2023/06/01 03:03:04;;;;;;;2.05;0.70;;;;;;;16.77;51.42;100554.94;10291733;28;20043;-60
2023/06/01 03:08:06;;;;;;;3.67;0.95;;;;;;;16.84;51.40;100548.50;10292871;28;20051;-61
2023/06/01 03:13:07;;;;;;;5.70;0.77;;;;;;;16.94;51.19;100560.75;10289703;28;20057;-62
2023/06/01 03:18:09;;;;;;;3.28;0.70;;;;;;;16.99;51.00;100558.25;10293094;28;20510;-60
2023/06/01 03:23:10;;;;;;;4.28;0.80;;;;;;;17.01;51.07;100558.88;10291511;28;20482;-62
2023/06/01 03:28:12;;;;;;;2.72;0.68;;;;;;;17.09;50.97;100557.81;10283864;28;22937;-62
2023/06/01 03:33:13;;;;;;;5.28;0.70;;;;;;;17.16;50.58;100559.47;10286735;28;20046;-63
2023/06/01 03:38:15;;;;;;;2.60;0.80;;;;;;;17.23;50.51;100570.28;10294672;28;20046;-63
2023/06/01 03:43:16;;;;;;;3.80;0.70;;;;;;;17.20;50.60;100559.84;10287625;28;20038;-61
2023/06/01 03:48:18;;;;;;;3.20;0.70;;;;;;;17.24;50.69;100566.53;10290984;28;20045;-62
2023/06/01 03:53:20;;;;;;;3.85;0.57;;;;;;;17.14;50.84;100572.44;10285221;28;20050;-62
2023/06/01 03:58:21;;;;;;;2.63;0.90;;;;;;;17.18;50.72;100572.81;10282598;28;20046;-62
2023/06/01 04:03:25;;;;;;;5.75;0.80;;;;;;;17.17;50.89;100563.84;10282385;28;20041;-61
2023/06/01 04:08:27;;;;;;;3.35;1.40;;;;;;;17.19;50.95;100563.63;10285462;28;20048;-62
2023/06/01 04:13:29;;;;;;;7.03;0.90;;;;;;;17.21;50.89;100566.97;10284956;28;20059;-62
2023/06/01 04:18:35;;;;;;;5.45;1.00;;;;;;;17.21;51.22;100565.06;10283765;28;20046;-62
2023/06/01 04:23:37;;;;;;;5.03;1.08;;;;;;;17.23;51.18;100568.41;10270366;28;20089;-62
2023/06/01 04:28:43;;;;;;;4.97;1.23;;;;;;;17.31;51.07;100558.34;10286919;28;20046;-62
2023/06/01 04:33:46;;;;;;;8.03;2.20;;;;;;;17.39;51.04;100564.38;10281092;28;20054;-62
2023/06/01 04:38:52;;;;;;;6.00;2.05;;;;;;;17.50;51.04;100564.78;10285027;28;20046;-62
2023/06/01 04:43:54;;;;;;;2.63;1.00;;;;;;;17.60;51.20;100571.41;10285747;28;20054;-62
2023/06/01 04:48:57;;;;;;;5.13;1.25;;;;;;;17.72;51.34;100571.53;10285730;28;20053;-63
2023/06/01 04:53:59;;;;;;;5.43;1.15;;;;;;;17.82;51.42;100569.19;10286144;28;20075;-62
2023/06/01 04:59:00;;;;;;;3.75;0.82;;;;;;;17.93;51.60;100561.41;10284176;28;20596;-64
2023/06/01 05:04:03;;;;;;;2.15;0.88;;;;;;;18.03;51.63;100562.59;10286524;28;20443;-63
2023/06/01 05:09:04;;;;;;;7.30;1.35;;;;;;;18.13;51.58;100566.72;10273798;28;20113;-63
2023/06/01 05:14:06;;;;;;;5.68;1.38;;;;;;;18.28;51.40;100574.56;10283743;28;20506;-60
2023/06/01 05:19:08;;;;;;;2.03;0.90;;;;;;;18.37;51.52;100573.22;10282921;28;20413;-62
2023/06/01 05:24:09;;;;;;;4.90;1.08;;;;;;;18.51;51.49;100566.59;10283702;28;20039;-61
2023/06/01 05:29:11;;;;;;;4.90;0.93;;;;;;;18.71;51.44;100565.59;10282293;28;20495;-62
2023/06/01 05:34:13;;;;;;;3.50;1.15;;;;;;;18.87;51.52;100569.66;10281898;28;20049;-60
2023/06/01 05:39:15;;;;;;;5.82;1.95;;;;;;;18.98;51.50;100564.28;10279745;28;20058;-60
2023/06/01 05:44:16;;;;;;;6.00;1.15;;;;;;;19.11;51.54;100565.19;10287109;28;20049;-62
2023/06/01 05:49:17;;;;;;;2.45;0.85;;;;;;;19.27;51.05;100572.75;10273727;28;20050;-60
2023/06/01 05:54:19;;;;;;;3.60;1.45;;;;;;;19.38;50.70;100571.16;10283698;28;20038;-62
2023/06/01 05:59:20;;;;;;;3.53;0.85;;;;;;;19.59;50.17;100573.41;10281548;28;20092;-62
2023/06/01 06:04:22;;;;;;;6.53;0.80;;;;;;;19.70;49.74;100569.06;10285677;28;20042;-63
2023/06/01 06:09:23;;;;;;;3.35;0.77;;;;;;;19.88;49.33;100568.22;10295084;28;20451;-60
2023/06/01 06:14:25;;;;;;;3.70;0.70;;;;;;;20.09;49.25;100566.03;10289941;28;20536;-62
2023/06/01 06:19:26;;;;;;;7.47;0.60;;;;;;;20.31;48.60;100574.50;10287026;28;20058;-60
2023/06/01 06:24:28;;;;;;;5.95;0.73;;;;;;;20.51;48.25;100563.22;10289225;28;20046;-60
2023/06/01 06:29:29;;;;;;;3.08;0.70;;;;;;;20.63;47.91;100569.56;10286458;28;20485;-62
2023/06/01 06:34:35;;;;;;;3.92;0.57;;;;;;;20.82;47.71;100577.66;10287290;28;20382;-61
2023/06/01 06:39:39;;;;;;;7.72;0.93;;;;;;;20.93;47.30;100565.84;10287112;28;20047;-62
2023/06/01 06:44:41;;;;;;;1.83;0.70;;;;;;;20.99;47.17;100564.91;10280964;28;20049;-61
2023/06/01 06:49:42;;;;;;;3.80;0.85;;;;;;;21.08;46.86;100568.94;10287343;28;20042;-61
2023/06/01 06:54:44;;;;;;;4.03;0.52;;;;;;;21.24;47.13;100574.75;10278006;28;20074;-64
2023/06/01 06:59:46;;;;;;;3.67;0.95;;;;;;;21.38;46.32;100578.84;10283789;28;20077;-61
2023/06/01 07:04:48;;;;;;;2.80;0.70;;;;;;;21.49;46.38;100578.03;10281345;28;20125;-62
2023/06/01 07:09:50;;;;;;;4.93;0.73;;;;;;;21.69;45.77;100574.03;10282790;28;20434;-61
2023/06/01 07:14:51;;;;;;;3.33;0.70;;;;;;;21.83;45.88;100575.41;10283725;28;20043;-62
2023/06/01 07:19:54;;;;;;;3.50;0.73;;;;;;;21.97;45.41;100574.00;10287527;28;20490;-61
2023/06/01 07:24:55;;;;;;;2.22;0.80;;;;;;;22.06;44.80;100568.13;10286604;28;20058;-63
2023/06/01 07:29:57;;;;;;;7.88;2.13;;;;;;;22.19;44.97;100570.53;10267920;28;20046;-63
2023/06/01 07:34:59;;;;;;;2.75;0.68;;;;;;;22.34;45.00;100568.09;10283248;28;20438;-60
2023/06/01 07:40:01;;;;;;;4.15;1.02;;;;;;;22.52;44.54;100577.16;10270802;28;20494;-60
2023/06/01 07:45:02;;;;;;;2.47;0.70;;;;;;;22.67;44.42;100579.28;10288323;28;20355;-60
2023/06/01 07:50:05;;;;;;;5.30;1.13;;;;;;;22.83;44.16;100569.38;10282917;28;20051;-61
2023/06/01 07:55:09;;;;;;;3.95;0.70;;;;;;;22.95;43.70;100561.91;10289993;28;20073;-60
2023/06/01 08:00:12;;;;;;;3.72;0.90;;;;;;;23.07;43.48;100565.38;10269844;28;20125;-59
2023/06/01 08:05:18;;;;;;;3.58;0.80;;;;;;;23.25;43.52;100561.50;10283568;28;20046;-61
2023/06/01 08:10:19;;;;;;;1.77;0.85;;;;;;;23.43;43.01;100565.81;10288546;28;20053;-60
2023/06/01 08:15:21;;;;;;;2.17;0.65;;;;;;;23.55;42.88;100557.44;10279119;28;20945;-62
2023/06/01 08:20:23;;;;;;;2.25;0.70;;;;;;;23.67;42.43;100551.81;10285144;28;20051;-60
2023/06/01 08:25:25;;;;;;;2.28;0.70;;;;;;;23.77;42.45;100538.19;10283769;28;20050;-62
2023/06/01 08:30:26;;;;;;;5.97;1.02;;;;;;;23.87;42.32;100545.72;10274113;28;20070;-62
2023/06/01 08:35:28;;;;;;;5.10;0.82;;;;;;;24.03;41.20;100541.22;10283234;28;20126;-60
2023/06/01 08:40:33;;;;;;;2.47;0.90;;;;;;;24.04;41.78;100532.72;10283514;28;20077;-61
2023/06/01 08:45:34;;;;;;;2.78;0.60;;;;;;;24.13;41.65;100535.81;10272590;28;20481;-60
2023/06/01 08:50:37;;;;;;;5.45;1.13;;;;;;;24.27;41.29;100538.94;10286953;28;20505;-60
2023/06/01 08:55:38;;;;;;;6.50;1.23;;;;;;;24.31;41.34;100527.19;10285331;28;20047;-59
2023/06/01 09:00:40;;;;;;;5.53;0.80;;;;;;;24.35;40.98;100527.47;10281241;28;20521;-61
2023/06/01 09:05:42;;;;;;;4.35;0.77;;;;;;;24.59;40.75;100516.13;10284243;28;20053;-61
2023/06/01 09:10:44;;;;;;;4.75;1.13;;;;;;;24.85;40.49;100515.16;10281223;28;20062;-62
2023/06/01 09:15:54;;;;;;;5.85;1.50;;;;;;;24.98;39.69;100502.88;10284243;28;20050;-59
2023/06/01 09:21:17;;;;;;;3.70;1.20;;;;;;;25.20;39.44;100508.19;10282097;28;20051;-60
2023/06/01 09:26:27;;;;;;;1.77;0.73;;;;;;;25.28;38.83;100499.44;10278663;28;20071;-59
2023/06/01 09:31:42;;;;;;;3.00;0.73;;;;;;;25.50;37.90;100495.63;10281793;28;20047;-59
2023/06/01 09:36:55;;;;;;;2.45;0.55;;;;;;;25.59;37.37;100495.91;10283230;28;20081;-59
2023/06/01 09:42:04;;;;;;;4.13;0.80;;;;;;;25.88;36.49;100485.22;10291065;28;20057;-63
2023/06/01 09:47:11;;;;;;;1.23;0.52;;;;;;;26.15;35.32;100481.41;10287186;28;20050;-63
2023/06/01 09:52:16;;;;;;;2.60;0.50;;;;;;;26.34;34.79;100485.19;10289003;28;20745;-63
2023/06/01 09:57:23;;;;;;;3.60;0.40;;;;;;;26.45;33.70;100475.81;10290911;28;20069;-63
2023/06/01 10:02:25;;;;;;;4.30;0.55;;;;;;;26.65;33.53;100474.16;10289851;28;20073;-63
2023/06/01 10:07:29;;;;;;;5.82;1.08;;;;;;;26.83;32.78;100470.75;10290044;28;20110;-62
2023/06/01 10:12:31;;;;;;;2.10;0.50;;;;;;;26.90;33.08;100471.31;10292249;28;20073;-63
2023/06/01 10:17:38;;;;;;;5.10;0.50;;;;;;;27.10;31.24;100475.91;10289156;28;20046;-63
2023/06/01 10:22:42;;;;;;;2.08;1.02;;;;;;;27.26;31.45;100464.81;10270953;28;20042;-62
2023/06/01 10:27:55;;;;;;;7.10;0.68;;;;;;;27.48;31.57;100454.16;10271524;28;20070;-63
2023/06/01 10:32:56;;;;;;;3.13;1.25;;;;;;;27.73;31.09;100454.28;10289594;28;20067;-62
2023/06/01 10:38:12;;;;;;;3.53;0.88;;;;;;;27.85;30.88;100438.97;10285139;28;20066;-63
2023/06/01 10:43:36;;;;;;;4.05;0.65;;;;;;;28.01;30.71;100447.97;10288230;28;20161;-62
2023/06/01 10:48:54;;;;;;;4.75;0.40;;;;;;;28.11;30.27;100443.47;10287785;28;20053;-63
2023/06/01 10:54:26;;;;;;;9.18;1.45;;;;;;;28.36;29.77;100445.13;10260056;28;20050;-62
2023/06/01 10:59:28;;;;;;;2.83;0.60;;;;;;;28.50;29.70;100432.28;10283732;28;20080;-62
2023/06/01 11:04:36;;;;;;;5.05;1.00;;;;;;;28.74;30.00;100423.19;10287395;28;20047;-62
2023/06/01 11:09:45;;;;;;;3.28;0.80;;;;;;;28.87;29.42;100423.28;10288838;28;20109;-62
2023/06/01 11:15:11;;;;;;;2.75;0.70;;;;;;;29.13;29.18;100424.88;10287134;28;20049;-63
2023/06/01 11:20:14;;;;;;;3.05;0.55;;;;;;;29.18;28.38;100417.31;10274280;28;20167;-62
2023/06/01 11:25:17;;;;;;;4.03;1.00;;;;;;;29.20;28.52;100415.09;10282280;28;20399;-61
2023/06/01 11:30:19;;;;;;;1.85;0.70;;;;;;;29.37;28.40;100409.03;10275144;28;20166;-62
2023/06/01 11:35:22;;;;;;;1.77;0.55;;;;;;;29.48;28.24;100406.91;10283250;28;20050;-63
2023/06/01 11:40:24;;;;;;;1.80;0.68;;;;;;;29.80;27.89;100399.75;10287519;28;20047;-64
2023/06/01 11:45:30;;;;;;;3.78;0.65;;;;;;;29.96;27.66;100392.81;10292075;28;20047;-62
2023/06/01 11:50:32;;;;;;;5.05;0.88;;;;;;;30.17;27.25;100396.03;10267189;28;20401;-62
2023/06/01 11:55:34;;;;;;;1.58;0.60;;;;;;;30.35;27.30;100382.41;10287700;28;20394;-60
2023/06/01 12:00:38;;;;;;;3.03;0.68;;;;;;;30.47;25.94;100379.13;10281705;28;20153;-60
2023/06/01 12:05:44;;;;;;;1.90;0.70;;;;;;;30.84;26.03;100383.59;10271479;28;20545;-60
2023/06/01 12:10:47;;;;;;;;;;;;;;;31.09;26.84;100375.88;10275086;28;20555;-60
2023/06/01 12:15:51;;;;;;;2.42;0.75;;;;;;;31.39;25.25;100377.06;10285456;28;19922;-60
2023/06/01 12:20:52;;;;;;;2.70;0.50;;;;;;;31.31;24.43;100377.84;10292563;28;20414;-58
2023/06/01 12:25:57;;;;;;;4.90;0.90;;;;;;;31.43;24.93;100361.41;10294634;28;20058;-59
2023/06/01 12:31:12;;;;;;;1.27;0.43;;;;;;;31.54;24.09;100353.69;10278624;28;20049;-59
2023/06/01 12:36:31;;;;;;;;;;;;;;;31.59;24.77;100345.19;10279948;28;20070;-62
2023/06/01 12:41:32;;;;;;;3.42;0.90;;;;;;;32.02;23.74;100347.44;10285433;28;19922;-61
2023/06/01 12:46:35;;;;;;;2.38;0.70;;;;;;;32.18;23.90;100342.25;10283823;28;20041;-60
2023/06/01 12:51:38;;;;;;;3.15;0.40;;;;;;;32.30;22.84;100336.06;10289757;28;20499;-60
2023/06/01 12:56:39;;;;;;;3.25;0.60;;;;;;;32.27;22.53;100325.56;10282899;28;20043;-59
2023/06/01 13:01:41;;;;;;;4.50;0.70;;;;;;;32.47;22.18;100322.19;10266035;28;20062;-62
2023/06/01 13:06:44;;;;;;;2.60;0.55;;;;;;;32.66;21.94;100318.31;10277297;28;20616;-59
2023/06/01 13:11:46;;;;;;;1.60;0.50;;;;;;;32.79;21.97;100311.78;10285309;28;20050;-60
2023/06/01 13:16:47;;;;;;;2.40;0.52;;;;;;;33.09;21.16;100309.16;10283694;28;20050;-60
2023/06/01 13:21:48;;;;;;;2.63;0.70;;;;;;;33.10;21.38;100299.72;10284529;28;20067;-60
2023/06/01 13:26:50;;;;;;;2.67;0.50;;;;;;;33.44;21.38;100292.44;10283166;28;20055;-60
2023/06/01 13:31:52;;;;;;;1.58;0.50;;;;;;;33.61;21.28;100291.53;10284081;28;20054;-61
2023/06/01 13:36:53;;;;;;;3.70;0.50;;;;;;;33.76;21.18;100282.66;10285860;28;20046;-60
2023/06/01 13:41:55;;;;;;;1.08;0.50;;;;;;;33.80;20.84;100285.63;10284573;28;20170;-60
2023/06/01 13:46:56;;;;;;;2.88;0.70;;;;;;;34.15;20.52;100280.72;10281034;28;20066;-61
2023/06/01 13:51:58;;;;;;;4.65;0.40;;;;;;;34.49;20.44;100267.69;10286218;28;20051;-59
2023/06/01 13:57:02;;;;;;;2.88;0.45;;;;;;;34.91;20.40;100256.50;10285080;28;20105;-59
2023/06/01 14:02:05;;;;;;;0.90;0.50;;;;;;;35.10;20.02;100251.22;10280474;28;20082;-60
2023/06/01 14:07:06;;;;;;;3.45;0.60;;;;;;;35.13;19.75;100252.50;10282837;28;20039;-60
2023/06/01 14:12:08;;;;;;;3.40;1.17;;;;;;;35.11;19.90;100246.44;10279558;28;20050;-59
2023/06/01 14:17:10;;;;;;;5.10;0.52;;;;;;;34.90;20.79;100244.53;10285951;28;20054;-60
2023/06/01 14:22:11;;;;;;;1.02;0.50;;;;;;;34.88;20.18;100238.47;10284124;28;20049;-63
2023/06/01 14:27:13;;;;;;;0.57;0.45;;;;;;;34.98;20.63;100234.44;10284948;28;20042;-60
2023/06/01 14:32:15;;;;;;;0.73;0.50;;;;;;;35.09;20.50;100229.22;10286886;28;20050;-59
2023/06/01 14:37:16;;;;;;;4.15;0.55;;;;;;;35.02;20.47;100228.97;10283499;28;20054;-60
2023/06/01 14:42:18;;;;;;;1.95;0.75;;;;;;;35.21;20.83;100222.88;10288498;28;20062;-59
2023/06/01 14:47:19;;;;;;;2.05;0.50;;;;;;;35.39;20.54;100212.31;10289125;28;20039;-59
2023/06/01 14:52:20;;;;;;;3.22;0.93;;;;;;;35.09;20.69;100209.66;10286749;28;20106;-61
2023/06/01 14:57:22;;;;;;;4.28;0.73;;;;;;;35.00;20.87;100208.94;10286110;28;20047;-60
2023/06/01 15:02:23;;;;;;;2.80;0.52;;;;;;;35.34;21.00;100196.59;10287935;28;20050;-63
2023/06/01 15:07:25;;;;;;;2.80;0.85;;;;;;;35.59;20.45;100197.44;10290998;28;20382;-61
2023/06/01 15:12:26;;;;;;;2.25;0.60;;;;;;;35.85;20.08;100188.69;10291840;28;20054;-60
2023/06/01 15:17:28;;;;;;;2.38;0.50;;;;;;;35.94;20.14;100178.19;10292083;28;20548;-59
2023/06/01 15:22:29;;;;;;;1.10;0.70;;;;;;;35.83;20.52;100177.03;10292439;28;20050;-62
2023/06/01 15:27:31;;;;;;;1.95;0.70;;;;;;;35.69;20.42;100169.00;10292045;28;20050;-60
2023/06/01 15:32:32;;;;;;;4.60;0.93;;;;;;;35.69;20.58;100166.22;10293569;28;20043;-64
2023/06/01 15:37:34;;;;;;;11.02;1.77;;;;;;;35.60;20.76;100157.09;10289645;28;20229;-62
2023/06/01 15:42:35;;;;;;;2.35;0.75;;;;;;;35.55;20.87;100166.53;10292342;28;20123;-61
2023/06/01 15:47:37;;;;;;;1.73;0.60;;;;;;;35.59;20.88;100169.47;10289139;28;20042;-61
2023/06/01 15:52:38;;;;;;;1.90;0.57;;;;;;;35.37;21.14;100170.75;10282666;28;20507;-62
2023/06/01 15:57:40;;;;;;;3.22;1.10;;;;;;;35.41;20.95;100165.25;10283981;28;20432;-58
2023/06/01 16:02:41;;;;;;;2.55;0.82;;;;;;;35.50;21.07;100174.34;10251362;28;1014970;-60
2023/06/01 16:07:43;;;;;;;4.18;1.85;;;;;;;34.94;20.98;100181.22;10286064;28;20053;-58
2023/06/01 16:12:44;;;;;;;7.43;2.58;;;;;;;34.22;22.10;100177.72;10288452;28;20046;-61
2023/06/01 16:17:46;;;;;;;4.38;2.20;;;;;;;33.69;22.07;100193.97;10286410;28;20046;-61
2023/06/01 16:22:47;;;;;;;7.13;2.65;;;;;;;33.71;21.86;100182.47;10271228;28;20449;-58
2023/06/01 16:27:50;;;;;;;3.97;2.20;;;;;;;33.78;21.31;100183.56;10287215;28;20043;-57
2023/06/01 16:32:51;;;;;;;3.00;1.67;;;;;;;33.81;21.35;100179.31;10287255;28;20077;-60
2023/06/01 16:37:53;;;;;;;2.80;2.08;;;;;;;33.59;21.76;100177.56;10284864;28;20054;-59
2023/06/01 16:42:54;;;;;;;4.10;2.03;;;;;;;33.81;21.48;100176.53;10283069;28;20058;-61
2023/06/01 16:47:56;;;;;;;4.38;1.92;;;;;;;33.67;21.67;100175.91;10283739;28;20058;-61
2023/06/01 16:52:57;;;;;;;2.85;1.90;;;;;;;33.78;21.37;100175.19;10283290;28;20043;-62
2023/06/01 16:57:59;;;;;;;3.40;2.20;;;;;;;33.70;22.20;100173.28;10287316;28;20073;-62
2023/06/01 17:03:00;;;;;;;2.58;1.67;;;;;;;34.04;21.90;100179.78;10266647;28;20039;-61
2023/06/01 17:08:02;;;;;;;3.60;1.60;;;;;;;34.02;21.54;100173.75;10284760;28;20042;-62
2023/06/01 17:13:03;;;;;;;4.38;1.40;;;;;;;34.15;21.56;100177.47;10272571;28;20046;-62
2023/06/01 17:18:05;;;;;;;4.32;1.27;;;;;;;34.27;21.05;100180.31;10291149;28;20054;-62
2023/06/01 17:23:06;;;;;;;3.60;1.90;;;;;;;34.05;21.30;100184.25;10287711;28;20047;-62
2023/06/01 17:28:08;;;;;;;2.58;1.40;;;;;;;33.60;21.89;100179.22;10268610;28;20053;-62
2023/06/01 17:33:09;;;;;;;3.70;1.75;;;;;;;33.16;22.10;100184.97;10281309;28;20050;-62
2023/06/01 17:38:11;;;;;;;4.50;1.73;;;;;;;32.92;22.73;100179.09;10247892;28;20053;-62
2023/06/01 17:43:13;;;;;;;3.08;1.67;;;;;;;32.82;22.44;100185.81;10284444;28;20441;-63
2023/06/01 17:48:14;;;;;;;6.70;1.55;;;;;;;32.57;22.78;100185.53;10278237;28;20486;-63
2023/06/01 17:53:17;;;;;;;3.35;1.55;;;;;;;32.42;22.96;100192.38;10283878;28;20142;-64
2023/06/01 17:58:38;;;;;;;3.03;1.67;;;;;;;32.09;23.31;100186.47;10287111;28;20106;-63
2023/06/01 18:03:40;;;;;;;3.30;1.70;;;;;;;32.14;23.14;100189.06;10289194;28;20042;-65
2023/06/01 18:08:42;;;;;;;4.32;2.10;;;;;;;31.60;24.03;100185.66;10292912;28;20046;-65
2023/06/01 18:13:44;;;;;;;4.20;2.38;;;;;;;30.85;25.20;100193.72;10293824;28;20130;-64
2023/06/01 18:18:46;;;;;;;5.57;2.90;;;;;;;30.04;25.97;100200.00;10293987;28;20043;-65
2023/06/01 18:23:49;;;;;;;5.47;2.35;;;;;;;29.13;26.97;100197.88;10303478;28;20047;-64
2023/06/01 18:28:50;;;;;;;3.78;2.22;;;;;;;28.54;27.70;100205.75;10279706;28;20505;-66
2023/06/01 18:33:52;;;;;;;3.33;1.90;;;;;;;27.95;28.38;100202.38;10299104;28;20112;-65
2023/06/01 18:38:53;;;;;;;5.75;2.20;;;;;;;27.24;29.37;100193.75;10300872;28;20051;-67
2023/06/01 18:43:55;;;;;;;6.82;3.58;;;;;;;26.69;30.10;100205.78;10291140;28;20066;-65
2023/06/01 18:48:56;;;;;;;4.72;2.65;;;;;;;26.35;30.21;100211.22;10297100;28;20049;-65
2023/06/01 18:54:00;;;;;;;5.18;2.95;;;;;;;26.04;31.12;100210.56;10278276;28;20279;-64
2023/06/01 18:59:02;;;;;;;4.10;2.60;;;;;;;25.70;31.97;100209.28;10269913;28;20053;-65
2023/06/01 19:04:03;;;;;;;6.85;2.78;;;;;;;25.39;32.27;100213.22;10291109;28;20213;-65
2023/06/01 19:09:07;;;;;;;3.85;2.83;;;;;;;24.88;32.87;100211.28;10282627;28;20102;-63
2023/06/01 19:14:15;;;;;;;7.55;3.22;;;;;;;24.38;33.75;100215.63;10296858;28;20075;-63
2023/06/01 19:19:23;;;;;;;9.85;3.85;;;;;;;24.04;34.25;100211.41;10297611;28;20113;-63
2023/06/01 19:24:25;;;;;;;3.63;2.20;;;;;;;23.74;34.86;100220.31;10271083;28;20471;-62
2023/06/01 19:29:27;;;;;;;4.18;2.60;;;;;;;23.43;35.40;100241.25;10275023;28;20060;-65
2023/06/01 19:34:30;;;;;;;8.35;3.03;;;;;;;23.23;36.07;100248.22;10287717;28;20042;-65
2023/06/01 19:39:38;;;;;;;8.27;3.33;;;;;;;22.99;36.60;100245.00;10284264;28;20061;-65
2023/06/01 19:44:39;;;;;;;6.13;3.40;;;;;;;22.76;37.31;100254.38;10287487;28;20830;-64
2023/06/01 19:49:41;;;;;;;4.20;2.70;;;;;;;22.46;38.18;100258.44;10262180;28;20035;-62
2023/06/01 19:54:42;;;;;;;6.13;3.05;;;;;;;22.17;38.63;100260.53;10284149;28;20395;-64
2023/06/01 19:59:44;;;;;;;9.25;3.65;;;;;;;21.86;39.42;100273.00;10295728;28;20047;-62
2023/06/01 20:04:46;;;;;;;7.32;3.85;;;;;;;21.72;39.33;100280.75;10295602;28;20051;-62
2023/06/01 20:09:49;;;;;;;5.72;3.92;;;;;;;21.52;39.69;100294.94;10290543;28;20058;-66
2023/06/01 20:14:51;;;;;;;7.07;3.53;;;;;;;21.31;40.62;100294.59;10271911;28;20058;-64
2023/06/01 20:19:53;;;;;;;6.38;2.90;;;;;;;21.25;40.70;100295.59;10287307;28;20133;-65
2023/06/01 20:24:54;;;;;;;5.72;3.13;;;;;;;21.04;40.73;100305.34;10288341;28;20046;-64
2023/06/01 20:29:55;;;;;;;8.13;3.08;;;;;;;20.86;41.46;100305.59;10268891;28;20053;-63
2023/06/01 20:34:57;;;;;;;6.13;4.07;;;;;;;20.51;42.20;100312.81;10284126;28;20057;-63
2023/06/01 20:39:58;;;;;;;7.93;3.63;;;;;;;20.30;42.83;100310.72;10299505;28;20347;-65
2023/06/01 20:45:00;;;;;;;10.77;4.47;;;;;;;20.17;43.01;100318.13;10303655;28;20398;-66
2023/06/01 20:50:02;;;;;;;7.40;4.25;;;;;;;19.98;43.29;100328.38;10288449;28;20054;-66
2023/06/01 20:55:05;;;;;;;11.30;4.00;;;;;;;19.86;43.46;100329.44;10315219;28;20054;-67
2023/06/01 21:00:12;;;;;;;8.90;5.22;;;;;;;19.66;43.64;100335.22;10321676;28;20059;-70
2023/06/01 21:05:16;;;;;;;19.42;5.28;;;;;;;19.28;44.43;100345.47;10318184;28;20066;-62
2023/06/01 21:10:17;;;;;;;10.35;4.75;;;;;;;19.09;44.77;100352.06;10318049;28;20110;-68
2023/06/01 21:15:19;;;;;;;10.32;4.60;;;;;;;18.96;45.13;100364.81;10320386;28;20023;-70
2023/06/01 21:20:22;;;;;;;8.90;4.40;;;;;;;18.74;45.87;100375.34;10324724;28;20054;-66
2023/06/01 21:25:23;;;;;;;11.45;3.92;;;;;;;18.46;46.59;100378.59;10313321;28;20109;-65
2023/06/01 21:30:25;;;;;;;9.52;4.50;;;;;;;18.28;47.03;100375.88;10310834;28;20043;-63
2023/06/01 21:35:26;;;;;;;9.43;4.22;;;;;;;18.10;47.21;100374.81;10317486;28;20472;-67
2023/06/01 21:40:28;;;;;;;6.38;4.85;;;;;;;17.88;48.17;100385.28;10308491;28;20031;-67
2023/06/01 21:45:32;;;;;;;9.80;4.00;;;;;;;17.77;48.44;100375.94;10319154;28;20066;-66
2023/06/01 21:50:38;;;;;;;6.97;4.20;;;;;;;17.56;48.86;100381.78;10338090;28;20043;-66
2023/06/01 21:55:41;;;;;;;6.88;3.92;;;;;;;17.45;49.23;100396.91;10337160;28;20316;-69
2023/06/01 22:00:44;;;;;;;7.85;4.35;;;;;;;17.33;49.59;100406.81;10334152;28;20046;-67
2023/06/01 22:05:47;;;;;;;7.32;4.30;;;;;;;17.21;49.66;100407.50;10330551;28;20035;-65
2023/06/01 22:10:48;;;;;;;6.20;3.80;;;;;;;16.96;50.46;100403.88;10331897;28;20105;-66
2023/06/01 22:15:50;;;;;;;4.88;3.53;;;;;;;16.90;50.35;100404.75;10336600;28;20050;-65
2023/06/01 22:20:52;;;;;;;6.88;3.90;;;;;;;16.73;50.62;100413.38;10340554;28;20068;-68
2023/06/01 22:25:53;;;;;;;5.38;3.65;;;;;;;16.67;51.12;100414.22;10324443;28;20077;-63
2023/06/01 22:30:54;;;;;;;5.90;3.15;;;;;;;16.64;51.00;100417.34;10328601;28;20099;-67
2023/06/01 22:35:56;;;;;;;8.23;4.70;;;;;;;16.60;51.20;100416.94;10331429;28;20059;-68
2023/06/01 22:40:57;;;;;;;3.50;2.95;;;;;;;16.52;51.36;100424.50;10325638;28;20367;-64
2023/06/01 22:45:59;;;;;;;7.57;4.25;;;;;;;16.39;51.70;100428.91;10310227;28;20062;-66
2023/06/01 22:51:01;;;;;;;5.30;3.60;;;;;;;16.27;51.79;100422.47;10326637;28;20046;-68
2023/06/01 22:56:04;;;;;;;7.60;3.53;;;;;;;16.28;51.61;100429.56;10328960;28;20047;-66
2023/06/01 23:01:07;;;;;;;10.10;3.58;;;;;;;16.16;51.88;100425.84;10328020;28;20326;-67
2023/06/01 23:06:09;;;;;;;6.57;3.85;;;;;;;16.08;52.48;100426.06;10327706;28;20047;-65
2023/06/01 23:11:11;;;;;;;7.38;4.03;;;;;;;16.02;52.33;100416.88;10329893;28;20070;-65